sensor_id;sensor_type;location;lat;lon;timestamp;temperature;humidity
18043;DHT22;9146;48.074;11.968;2023-06-10T00:00:28;14.80;99.90
18043;DHT22;9146;48.074;11.968;2023-06-10T00:02:57;14.80;99.90
18043;DHT22;9146;48.074;11.968;2023-06-10T00:05:24;14.70;99.90
18043;DHT22;9146;48.074;11.968;2023-06-10T00:07:55;14.60;99.90
18043;DHT22;9146;48.074;11.968;2023-06-10T00:10:22;14.60;99.90
18043;DHT22;9146;48.074;11.968;2023-06-10T00:12:49;14.60;99.90
18043;DHT22;9146;48.074;11.968;2023-06-10T00:15:17;14.60;99.90
18043;DHT22;9146;48.074;11.968;2023-06-10T00:17:44;14.50;99.90
18043;DHT22;9146;48.074;11.968;2023-06-10T00:20:13;14.50;99.90
18043;DHT22;9146;48.074;11.968;2023-06-10T00:22:41;14.50;99.90
18043;DHT22;9146;48.074;11.968;2023-06-10T00:25:11;14.50;99.90
18043;DHT22;9146;48.074;11.968;2023-06-10T00:27:38;14.40;99.90
18043;DHT22;9146;48.074;11.968;2023-06-10T00:30:07;14.40;99.90
18043;DHT22;9146;48.074;11.968;2023-06-10T00:32:34;14.40;99.90
18043;DHT22;9146;48.074;11.968;2023-06-10T00:35:01;14.40;99.90
18043;DHT22;9146;48.074;11.968;2023-06-10T00:37:29;14.40;99.90
18043;DHT22;9146;48.074;11.968;2023-06-10T00:39:57;14.30;99.90
18043;DHT22;9146;48.074;11.968;2023-06-10T00:42:24;14.30;99.90
18043;DHT22;9146;48.074;11.968;2023-06-10T00:44:53;14.30;99.90
18043;DHT22;9146;48.074;11.968;2023-06-10T00:47:21;14.30;99.90
18043;DHT22;9146;48.074;11.968;2023-06-10T00:49:48;14.20;99.90
18043;DHT22;9146;48.074;11.968;2023-06-10T00:52:17;14.20;99.90
18043;DHT22;9146;48.074;11.968;2023-06-10T00:54:46;14.20;99.90
18043;DHT22;9146;48.074;11.968;2023-06-10T00:57:13;14.10;99.90
18043;DHT22;9146;48.074;11.968;2023-06-10T00:59:41;14.10;99.90
18043;DHT22;9146;48.074;11.968;2023-06-10T01:02:08;14.10;99.90
18043;DHT22;9146;48.074;11.968;2023-06-10T01:04:35;14.00;99.90
18043;DHT22;9146;48.074;11.968;2023-06-10T01:07:17;14.00;99.90
18043;DHT22;9146;48.074;11.968;2023-06-10T01:09:50;14.00;99.90
18043;DHT22;9146;48.074;11.968;2023-06-10T01:12:26;13.90;99.90
18043;DHT22;9146;48.074;11.968;2023-06-10T01:14:55;13.90;99.90
18043;DHT22;9146;48.074;11.968;2023-06-10T01:17:23;13.80;99.90
18043;DHT22;9146;48.074;11.968;2023-06-10T01:19:56;13.80;99.90
18043;DHT22;9146;48.074;11.968;2023-06-10T01:22:25;13.80;99.90
18043;DHT22;9146;48.074;11.968;2023-06-10T01:24:54;13.80;99.90
18043;DHT22;9146;48.074;11.968;2023-06-10T01:27:27;13.70;99.90
18043;DHT22;9146;48.074;11.968;2023-06-10T01:29:59;13.70;99.90
18043;DHT22;9146;48.074;11.968;2023-06-10T01:32:33;13.60;99.90
18043;DHT22;9146;48.074;11.968;2023-06-10T01:35:02;13.60;99.90
18043;DHT22;9146;48.074;11.968;2023-06-10T01:37:31;13.60;99.90
18043;DHT22;9146;48.074;11.968;2023-06-10T01:40:02;13.60;99.90
18043;DHT22;9146;48.074;11.968;2023-06-10T01:42:31;13.50;99.90
18043;DHT22;9146;48.074;11.968;2023-06-10T01:44:58;13.50;99.90
18043;DHT22;9146;48.074;11.968;2023-06-10T01:47:26;13.50;99.90
18043;DHT22;9146;48.074;11.968;2023-06-10T01:49:52;13.50;99.90
18043;DHT22;9146;48.074;11.968;2023-06-10T01:52:19;13.50;99.90
18043;DHT22;9146;48.074;11.968;2023-06-10T01:54:48;13.50;99.90
18043;DHT22;9146;48.074;11.968;2023-06-10T01:57:14;13.40;99.90
18043;DHT22;9146;48.074;11.968;2023-06-10T01:59:41;13.40;99.90
18043;DHT22;9146;48.074;11.968;2023-06-10T02:02:10;13.40;99.90
18043;DHT22;9146;48.074;11.968;2023-06-10T02:04:36;13.40;99.90
18043;DHT22;9146;48.074;11.968;2023-06-10T02:07:04;13.40;99.90
18043;DHT22;9146;48.074;11.968;2023-06-10T02:09:31;13.40;99.90
18043;DHT22;9146;48.074;11.968;2023-06-10T02:12:02;13.40;99.90
18043;DHT22;9146;48.074;11.968;2023-06-10T02:14:32;13.40;99.90
18043;DHT22;9146;48.074;11.968;2023-06-10T02:17:05;13.40;99.90
18043;DHT22;9146;48.074;11.968;2023-06-10T02:19:46;13.30;99.90
18043;DHT22;9146;48.074;11.968;2023-06-10T02:22:19;13.30;99.90
18043;DHT22;9146;48.074;11.968;2023-06-10T02:24:47;13.20;99.90
18043;DHT22;9146;48.074;11.968;2023-06-10T02:27:16;13.20;99.90
18043;DHT22;9146;48.074;11.968;2023-06-10T02:29:43;13.20;99.90
18043;DHT22;9146;48.074;11.968;2023-06-10T02:32:10;13.20;99.90
18043;DHT22;9146;48.074;11.968;2023-06-10T02:34:37;13.10;99.90
18043;DHT22;9146;48.074;11.968;2023-06-10T02:37:04;13.10;99.90
18043;DHT22;9146;48.074;11.968;2023-06-10T02:39:31;13.10;99.90
18043;DHT22;9146;48.074;11.968;2023-06-10T02:41:58;13.10;99.90
18043;DHT22;9146;48.074;11.968;2023-06-10T02:44:26;13.00;99.90
18043;DHT22;9146;48.074;11.968;2023-06-10T02:46:53;13.00;99.90
18043;DHT22;9146;48.074;11.968;2023-06-10T02:49:20;13.00;99.90
18043;DHT22;9146;48.074;11.968;2023-06-10T02:51:47;13.00;99.90
18043;DHT22;9146;48.074;11.968;2023-06-10T02:54:14;13.00;99.90
18043;DHT22;9146;48.074;11.968;2023-06-10T02:56:42;13.00;99.90
18043;DHT22;9146;48.074;11.968;2023-06-10T02:59:08;13.00;99.90
18043;DHT22;9146;48.074;11.968;2023-06-10T03:01:37;13.00;99.90
18043;DHT22;9146;48.074;11.968;2023-06-10T03:04:05;13.00;99.90
18043;DHT22;9146;48.074;11.968;2023-06-10T03:06:32;12.90;99.90
18043;DHT22;9146;48.074;11.968;2023-06-10T03:09:00;13.00;99.90
18043;DHT22;9146;48.074;11.968;2023-06-10T03:11:29;13.00;99.90
18043;DHT22;9146;48.074;11.968;2023-06-10T03:13:57;13.00;99.90
18043;DHT22;9146;48.074;11.968;2023-06-10T03:16:24;13.00;99.90
18043;DHT22;9146;48.074;11.968;2023-06-10T03:18:54;13.00;99.90
18043;DHT22;9146;48.074;11.968;2023-06-10T03:21:21;13.00;99.90
18043;DHT22;9146;48.074;11.968;2023-06-10T03:23:48;13.00;99.90
18043;DHT22;9146;48.074;11.968;2023-06-10T03:26:14;12.90;99.90
18043;DHT22;9146;48.074;11.968;2023-06-10T03:28:42;12.90;99.90
18043;DHT22;9146;48.074;11.968;2023-06-10T03:31:09;12.90;99.90
18043;DHT22;9146;48.074;11.968;2023-06-10T03:33:36;12.90;99.90
18043;DHT22;9146;48.074;11.968;2023-06-10T03:36:05;13.00;99.90
18043;DHT22;9146;48.074;11.968;2023-06-10T03:38:32;13.00;99.90
18043;DHT22;9146;48.074;11.968;2023-06-10T03:40:59;12.90;99.90
18043;DHT22;9146;48.074;11.968;2023-06-10T03:43:25;13.00;99.90
18043;DHT22;9146;48.074;11.968;2023-06-10T03:45:53;13.00;99.90
18043;DHT22;9146;48.074;11.968;2023-06-10T03:48:20;13.00;99.90
18043;DHT22;9146;48.074;11.968;2023-06-10T03:50:47;13.10;99.90
18043;DHT22;9146;48.074;11.968;2023-06-10T03:53:17;13.20;99.90
18043;DHT22;9146;48.074;11.968;2023-06-10T03:55:44;13.30;99.90
18043;DHT22;9146;48.074;11.968;2023-06-10T03:58:11;13.40;99.90
18043;DHT22;9146;48.074;11.968;2023-06-10T04:00:40;13.50;99.90
18043;DHT22;9146;48.074;11.968;2023-06-10T04:03:08;13.70;99.90
18043;DHT22;9146;48.074;11.968;2023-06-10T04:05:40;13.80;99.90
18043;DHT22;9146;48.074;11.968;2023-06-10T04:08:08;13.90;99.90
18043;DHT22;9146;48.074;11.968;2023-06-10T04:10:36;14.00;99.90
18043;DHT22;9146;48.074;11.968;2023-06-10T04:13:03;14.20;99.90
18043;DHT22;9146;48.074;11.968;2023-06-10T04:15:30;14.30;99.90
18043;DHT22;9146;48.074;11.968;2023-06-10T04:17:59;14.50;99.90
18043;DHT22;9146;48.074;11.968;2023-06-10T04:20:26;14.60;99.90
18043;DHT22;9146;48.074;11.968;2023-06-10T04:22:53;14.80;99.90
18043;DHT22;9146;48.074;11.968;2023-06-10T04:25:20;14.90;99.90
18043;DHT22;9146;48.074;11.968;2023-06-10T04:27:48;15.00;99.90
18043;DHT22;9146;48.074;11.968;2023-06-10T04:30:16;15.20;99.90
18043;DHT22;9146;48.074;11.968;2023-06-10T04:32:43;15.40;99.90
18043;DHT22;9146;48.074;11.968;2023-06-10T04:35:11;15.50;99.90
18043;DHT22;9146;48.074;11.968;2023-06-10T04:37:38;15.70;99.90
18043;DHT22;9146;48.074;11.968;2023-06-10T04:40:08;15.80;99.90
18043;DHT22;9146;48.074;11.968;2023-06-10T04:42:35;15.90;99.90
18043;DHT22;9146;48.074;11.968;2023-06-10T04:45:05;16.00;99.90
18043;DHT22;9146;48.074;11.968;2023-06-10T04:47:32;16.10;99.90
18043;DHT22;9146;48.074;11.968;2023-06-10T04:49:59;16.20;99.90
18043;DHT22;9146;48.074;11.968;2023-06-10T04:52:26;16.40;99.90
18043;DHT22;9146;48.074;11.968;2023-06-10T04:54:53;16.50;99.90
18043;DHT22;9146;48.074;11.968;2023-06-10T04:57:20;16.70;99.90
18043;DHT22;9146;48.074;11.968;2023-06-10T04:59:47;16.80;99.90
18043;DHT22;9146;48.074;11.968;2023-06-10T05:02:16;16.90;99.90
18043;DHT22;9146;48.074;11.968;2023-06-10T05:04:42;17.00;99.90
18043;DHT22;9146;48.074;11.968;2023-06-10T05:07:09;17.10;99.90
18043;DHT22;9146;48.074;11.968;2023-06-10T05:09:36;17.30;99.90
18043;DHT22;9146;48.074;11.968;2023-06-10T05:12:04;17.40;99.90
18043;DHT22;9146;48.074;11.968;2023-06-10T05:14:32;17.50;99.90
18043;DHT22;9146;48.074;11.968;2023-06-10T05:16:58;17.50;99.90
18043;DHT22;9146;48.074;11.968;2023-06-10T05:19:27;17.70;99.90
18043;DHT22;9146;48.074;11.968;2023-06-10T05:21:54;17.80;99.90
18043;DHT22;9146;48.074;11.968;2023-06-10T05:24:21;17.90;99.90
18043;DHT22;9146;48.074;11.968;2023-06-10T05:26:48;18.00;99.90
18043;DHT22;9146;48.074;11.968;2023-06-10T05:29:15;18.00;99.90
18043;DHT22;9146;48.074;11.968;2023-06-10T05:31:42;18.10;99.90
18043;DHT22;9146;48.074;11.968;2023-06-10T05:34:09;18.20;99.90
18043;DHT22;9146;48.074;11.968;2023-06-10T05:36:37;18.30;99.90
18043;DHT22;9146;48.074;11.968;2023-06-10T05:39:04;18.40;99.90
18043;DHT22;9146;48.074;11.968;2023-06-10T05:41:31;18.50;99.90
18043;DHT22;9146;48.074;11.968;2023-06-10T05:43:58;18.60;99.90
18043;DHT22;9146;48.074;11.968;2023-06-10T05:46:25;18.70;99.90
18043;DHT22;9146;48.074;11.968;2023-06-10T05:48:52;18.70;99.90
18043;DHT22;9146;48.074;11.968;2023-06-10T05:51:19;18.80;99.90
18043;DHT22;9146;48.074;11.968;2023-06-10T05:53:47;18.80;99.90
18043;DHT22;9146;48.074;11.968;2023-06-10T05:56:14;18.90;99.90
18043;DHT22;9146;48.074;11.968;2023-06-10T05:58:41;18.90;99.90
18043;DHT22;9146;48.074;11.968;2023-06-10T06:01:08;18.90;99.90
18043;DHT22;9146;48.074;11.968;2023-06-10T06:03:35;18.90;99.90
18043;DHT22;9146;48.074;11.968;2023-06-10T06:06:02;19.00;99.90
18043;DHT22;9146;48.074;11.968;2023-06-10T06:08:29;19.00;99.90
18043;DHT22;9146;48.074;11.968;2023-06-10T06:10:57;19.10;99.90
18043;DHT22;9146;48.074;11.968;2023-06-10T06:13:24;19.10;99.90
18043;DHT22;9146;48.074;11.968;2023-06-10T06:15:51;19.10;99.90
18043;DHT22;9146;48.074;11.968;2023-06-10T06:18:18;19.10;99.90
18043;DHT22;9146;48.074;11.968;2023-06-10T06:20:45;19.10;99.90
18043;DHT22;9146;48.074;11.968;2023-06-10T06:23:12;19.10;99.90
18043;DHT22;9146;48.074;11.968;2023-06-10T06:25:39;19.20;99.90
18043;DHT22;9146;48.074;11.968;2023-06-10T06:28:07;19.30;99.90
18043;DHT22;9146;48.074;11.968;2023-06-10T06:30:34;19.40;99.90
18043;DHT22;9146;48.074;11.968;2023-06-10T06:33:01;19.50;99.90
18043;DHT22;9146;48.074;11.968;2023-06-10T06:35:30;19.60;99.90
18043;DHT22;9146;48.074;11.968;2023-06-10T06:37:57;19.70;99.90
18043;DHT22;9146;48.074;11.968;2023-06-10T06:40:25;19.80;99.90
18043;DHT22;9146;48.074;11.968;2023-06-10T06:42:52;19.90;99.90
18043;DHT22;9146;48.074;11.968;2023-06-10T06:45:21;20.10;99.90
18043;DHT22;9146;48.074;11.968;2023-06-10T06:47:48;20.10;99.90
18043;DHT22;9146;48.074;11.968;2023-06-10T06:50:15;20.10;99.90
18043;DHT22;9146;48.074;11.968;2023-06-10T06:52:42;20.10;99.90
18043;DHT22;9146;48.074;11.968;2023-06-10T06:55:09;20.10;99.90
18043;DHT22;9146;48.074;11.968;2023-06-10T06:57:36;20.10;99.90
18043;DHT22;9146;48.074;11.968;2023-06-10T07:00:04;20.10;99.90
18043;DHT22;9146;48.074;11.968;2023-06-10T07:02:33;20.00;99.90
18043;DHT22;9146;48.074;11.968;2023-06-10T07:05:00;20.10;99.90
18043;DHT22;9146;48.074;11.968;2023-06-10T07:07:27;20.10;99.90
18043;DHT22;9146;48.074;11.968;2023-06-10T07:09:53;20.10;99.90
18043;DHT22;9146;48.074;11.968;2023-06-10T07:12:21;20.20;99.90
18043;DHT22;9146;48.074;11.968;2023-06-10T07:14:49;20.20;99.90
18043;DHT22;9146;48.074;11.968;2023-06-10T07:17:16;20.30;99.90
18043;DHT22;9146;48.074;11.968;2023-06-10T07:19:45;20.30;99.90
18043;DHT22;9146;48.074;11.968;2023-06-10T07:22:12;20.30;99.90
18043;DHT22;9146;48.074;11.968;2023-06-10T07:24:39;20.40;99.90
18043;DHT22;9146;48.074;11.968;2023-06-10T07:27:06;20.50;99.90
18043;DHT22;9146;48.074;11.968;2023-06-10T07:29:33;20.50;99.90
18043;DHT22;9146;48.074;11.968;2023-06-10T07:32:02;20.60;99.90
18043;DHT22;9146;48.074;11.968;2023-06-10T07:34:29;20.60;99.90
18043;DHT22;9146;48.074;11.968;2023-06-10T07:36:57;20.70;99.90
18043;DHT22;9146;48.074;11.968;2023-06-10T07:39:24;20.80;99.90
18043;DHT22;9146;48.074;11.968;2023-06-10T07:41:51;20.80;99.90
18043;DHT22;9146;48.074;11.968;2023-06-10T07:44:19;20.90;99.90
18043;DHT22;9146;48.074;11.968;2023-06-10T07:46:47;20.90;99.90
18043;DHT22;9146;48.074;11.968;2023-06-10T07:49:14;20.90;99.90
18043;DHT22;9146;48.074;11.968;2023-06-10T07:51:41;21.00;99.90
18043;DHT22;9146;48.074;11.968;2023-06-10T07:54:11;20.90;99.90
18043;DHT22;9146;48.074;11.968;2023-06-10T07:56:39;20.80;99.90
18043;DHT22;9146;48.074;11.968;2023-06-10T07:59:06;20.90;99.90
18043;DHT22;9146;48.074;11.968;2023-06-10T08:01:33;20.90;99.90
18043;DHT22;9146;48.074;11.968;2023-06-10T08:04:01;21.00;99.90
18043;DHT22;9146;48.074;11.968;2023-06-10T08:06:28;21.20;99.90
18043;DHT22;9146;48.074;11.968;2023-06-10T08:08:55;21.20;99.90
18043;DHT22;9146;48.074;11.968;2023-06-10T08:11:23;21.30;99.90
18043;DHT22;9146;48.074;11.968;2023-06-10T08:13:52;21.40;99.90
18043;DHT22;9146;48.074;11.968;2023-06-10T08:16:19;21.30;99.90
18043;DHT22;9146;48.074;11.968;2023-06-10T08:18:46;21.40;99.90
18043;DHT22;9146;48.074;11.968;2023-06-10T08:21:15;21.50;99.90
18043;DHT22;9146;48.074;11.968;2023-06-10T08:23:42;21.60;99.90
18043;DHT22;9146;48.074;11.968;2023-06-10T08:26:10;21.80;99.90
18043;DHT22;9146;48.074;11.968;2023-06-10T08:28:38;22.00;99.90
18043;DHT22;9146;48.074;11.968;2023-06-10T08:31:05;22.20;99.90
18043;DHT22;9146;48.074;11.968;2023-06-10T08:33:32;22.30;99.90
18043;DHT22;9146;48.074;11.968;2023-06-10T08:35:58;22.50;99.90
18043;DHT22;9146;48.074;11.968;2023-06-10T08:38:25;22.60;99.90
18043;DHT22;9146;48.074;11.968;2023-06-10T08:40:56;22.60;99.90
18043;DHT22;9146;48.074;11.968;2023-06-10T08:43:31;22.60;99.90
18043;DHT22;9146;48.074;11.968;2023-06-10T08:46:01;22.60;99.90
18043;DHT22;9146;48.074;11.968;2023-06-10T08:48:29;22.60;99.90
18043;DHT22;9146;48.074;11.968;2023-06-10T08:50:57;22.50;99.90
18043;DHT22;9146;48.074;11.968;2023-06-10T08:53:24;22.60;99.90
18043;DHT22;9146;48.074;11.968;2023-06-10T08:55:53;22.70;99.90
18043;DHT22;9146;48.074;11.968;2023-06-10T08:58:23;22.70;99.90
18043;DHT22;9146;48.074;11.968;2023-06-10T09:00:51;22.80;99.90
18043;DHT22;9146;48.074;11.968;2023-06-10T09:03:19;22.80;99.90
18043;DHT22;9146;48.074;11.968;2023-06-10T09:05:46;22.80;99.90
18043;DHT22;9146;48.074;11.968;2023-06-10T09:08:15;22.80;99.90
18043;DHT22;9146;48.074;11.968;2023-06-10T09:10:42;22.90;99.90
18043;DHT22;9146;48.074;11.968;2023-06-10T09:13:09;22.90;99.90
18043;DHT22;9146;48.074;11.968;2023-06-10T09:15:35;22.90;99.90
18043;DHT22;9146;48.074;11.968;2023-06-10T09:18:02;23.00;99.90
18043;DHT22;9146;48.074;11.968;2023-06-10T09:20:32;23.00;99.90
18043;DHT22;9146;48.074;11.968;2023-06-10T09:22:59;23.10;99.90
18043;DHT22;9146;48.074;11.968;2023-06-10T09:25:35;23.20;99.90
18043;DHT22;9146;48.074;11.968;2023-06-10T09:28:03;23.30;99.90
18043;DHT22;9146;48.074;11.968;2023-06-10T09:30:32;23.40;99.90
18043;DHT22;9146;48.074;11.968;2023-06-10T09:33:01;23.60;99.90
18043;DHT22;9146;48.074;11.968;2023-06-10T09:35:29;23.70;99.90
18043;DHT22;9146;48.074;11.968;2023-06-10T09:37:59;23.80;99.90
18043;DHT22;9146;48.074;11.968;2023-06-10T09:40:28;23.80;99.90
18043;DHT22;9146;48.074;11.968;2023-06-10T09:42:56;23.80;99.90
18043;DHT22;9146;48.074;11.968;2023-06-10T09:45:25;23.70;99.90
18043;DHT22;9146;48.074;11.968;2023-06-10T09:47:55;23.60;99.90
18043;DHT22;9146;48.074;11.968;2023-06-10T09:50:22;23.70;99.90
18043;DHT22;9146;48.074;11.968;2023-06-10T09:52:50;23.70;99.90
18043;DHT22;9146;48.074;11.968;2023-06-10T09:55:19;23.80;99.90
18043;DHT22;9146;48.074;11.968;2023-06-10T09:57:49;23.70;99.90
18043;DHT22;9146;48.074;11.968;2023-06-10T10:00:17;23.70;99.90
18043;DHT22;9146;48.074;11.968;2023-06-10T10:02:45;23.70;99.90
18043;DHT22;9146;48.074;11.968;2023-06-10T10:05:14;23.70;99.90
18043;DHT22;9146;48.074;11.968;2023-06-10T10:07:42;23.60;99.90
18043;DHT22;9146;48.074;11.968;2023-06-10T10:10:10;23.60;99.90
18043;DHT22;9146;48.074;11.968;2023-06-10T10:12:40;23.60;99.90
18043;DHT22;9146;48.074;11.968;2023-06-10T10:15:08;23.60;99.90
18043;DHT22;9146;48.074;11.968;2023-06-10T10:17:39;23.50;99.90
18043;DHT22;9146;48.074;11.968;2023-06-10T10:20:08;23.40;99.90
18043;DHT22;9146;48.074;11.968;2023-06-10T10:22:38;23.40;99.90
18043;DHT22;9146;48.074;11.968;2023-06-10T10:25:10;23.40;99.90
18043;DHT22;9146;48.074;11.968;2023-06-10T10:27:44;23.40;99.90
18043;DHT22;9146;48.074;11.968;2023-06-10T10:30:14;23.50;99.90
18043;DHT22;9146;48.074;11.968;2023-06-10T10:32:52;23.70;99.90
18043;DHT22;9146;48.074;11.968;2023-06-10T10:35:24;23.80;99.90
18043;DHT22;9146;48.074;11.968;2023-06-10T10:37:52;23.90;99.90
18043;DHT22;9146;48.074;11.968;2023-06-10T10:40:20;24.00;99.90
18043;DHT22;9146;48.074;11.968;2023-06-10T10:42:49;24.00;99.90
18043;DHT22;9146;48.074;11.968;2023-06-10T10:45:16;24.00;99.90
18043;DHT22;9146;48.074;11.968;2023-06-10T10:47:45;24.10;99.90
18043;DHT22;9146;48.074;11.968;2023-06-10T10:50:16;24.20;99.90
18043;DHT22;9146;48.074;11.968;2023-06-10T10:52:52;24.40;99.90
18043;DHT22;9146;48.074;11.968;2023-06-10T10:55:19;24.50;99.90
18043;DHT22;9146;48.074;11.968;2023-06-10T10:57:55;24.60;99.90
18043;DHT22;9146;48.074;11.968;2023-06-10T11:00:30;24.80;99.90
18043;DHT22;9146;48.074;11.968;2023-06-10T11:02:58;24.90;99.90
18043;DHT22;9146;48.074;11.968;2023-06-10T11:05:36;25.20;99.90
18043;DHT22;9146;48.074;11.968;2023-06-10T11:08:04;25.40;99.90
18043;DHT22;9146;48.074;11.968;2023-06-10T11:10:35;25.60;99.80
18043;DHT22;9146;48.074;11.968;2023-06-10T11:13:19;25.70;99.30
18043;DHT22;9146;48.074;11.968;2023-06-10T11:15:47;25.70;99.90
18043;DHT22;9146;48.074;11.968;2023-06-10T11:18:20;25.70;99.20
18043;DHT22;9146;48.074;11.968;2023-06-10T11:20:58;25.70;98.20
18043;DHT22;9146;48.074;11.968;2023-06-10T11:23:38;25.80;97.90
18043;DHT22;9146;48.074;11.968;2023-06-10T11:26:19;25.90;96.90
18043;DHT22;9146;48.074;11.968;2023-06-10T11:29:07;26.00;95.80
18043;DHT22;9146;48.074;11.968;2023-06-10T11:31:45;26.10;95.60
18043;DHT22;9146;48.074;11.968;2023-06-10T11:34:13;26.20;95.70
18043;DHT22;9146;48.074;11.968;2023-06-10T11:36:41;26.30;94.50
18043;DHT22;9146;48.074;11.968;2023-06-10T11:39:11;26.40;93.30
18043;DHT22;9146;48.074;11.968;2023-06-10T11:41:39;26.40;92.50
18043;DHT22;9146;48.074;11.968;2023-06-10T11:44:12;26.50;92.00
18043;DHT22;9146;48.074;11.968;2023-06-10T11:46:40;26.60;92.50
18043;DHT22;9146;48.074;11.968;2023-06-10T11:49:08;26.90;92.80
18043;DHT22;9146;48.074;11.968;2023-06-10T11:51:36;27.10;92.70
18043;DHT22;9146;48.074;11.968;2023-06-10T11:54:04;27.40;91.20
18043;DHT22;9146;48.074;11.968;2023-06-10T11:56:32;27.50;88.70
18043;DHT22;9146;48.074;11.968;2023-06-10T11:59:00;27.50;88.20
18043;DHT22;9146;48.074;11.968;2023-06-10T12:01:32;27.80;88.80
18043;DHT22;9146;48.074;11.968;2023-06-10T12:04:00;27.90;90.00
18043;DHT22;9146;48.074;11.968;2023-06-10T12:06:38;27.70;92.60
18043;DHT22;9146;48.074;11.968;2023-06-10T12:09:06;27.30;93.40
18043;DHT22;9146;48.074;11.968;2023-06-10T12:11:33;26.80;95.00
18043;DHT22;9146;48.074;11.968;2023-06-10T12:14:01;26.50;95.30
18043;DHT22;9146;48.074;11.968;2023-06-10T12:16:30;26.10;95.70
18043;DHT22;9146;48.074;11.968;2023-06-10T12:19:02;25.90;96.60
18043;DHT22;9146;48.074;11.968;2023-06-10T12:21:29;25.70;97.50
18043;DHT22;9146;48.074;11.968;2023-06-10T12:24:03;25.60;97.70
18043;DHT22;9146;48.074;11.968;2023-06-10T12:26:41;25.60;98.20
18043;DHT22;9146;48.074;11.968;2023-06-10T12:29:20;25.70;97.70
18043;DHT22;9146;48.074;11.968;2023-06-10T12:32:06;25.60;98.20
18043;DHT22;9146;48.074;11.968;2023-06-10T12:34:35;25.70;97.90
18043;DHT22;9146;48.074;11.968;2023-06-10T12:37:03;25.80;97.80
18043;DHT22;9146;48.074;11.968;2023-06-10T12:39:31;25.80;97.50
18043;DHT22;9146;48.074;11.968;2023-06-10T12:41:59;25.90;96.90
18043;DHT22;9146;48.074;11.968;2023-06-10T12:44:30;25.90;96.50
18043;DHT22;9146;48.074;11.968;2023-06-10T12:46:57;25.90;95.90
18043;DHT22;9146;48.074;11.968;2023-06-10T12:49:25;26.00;95.70
18043;DHT22;9146;48.074;11.968;2023-06-10T12:51:53;26.00;96.10
18043;DHT22;9146;48.074;11.968;2023-06-10T12:54:20;26.00;96.40
18043;DHT22;9146;48.074;11.968;2023-06-10T12:56:47;25.90;96.00
18043;DHT22;9146;48.074;11.968;2023-06-10T12:59:14;25.80;96.00
18043;DHT22;9146;48.074;11.968;2023-06-10T13:01:41;25.70;95.60
18043;DHT22;9146;48.074;11.968;2023-06-10T13:04:08;25.60;95.80
18043;DHT22;9146;48.074;11.968;2023-06-10T13:06:36;25.60;95.80
18043;DHT22;9146;48.074;11.968;2023-06-10T13:09:05;25.60;96.10
18043;DHT22;9146;48.074;11.968;2023-06-10T13:11:33;25.50;95.80
18043;DHT22;9146;48.074;11.968;2023-06-10T13:14:00;25.60;96.10
18043;DHT22;9146;48.074;11.968;2023-06-10T13:16:28;25.60;96.70
18043;DHT22;9146;48.074;11.968;2023-06-10T13:18:55;25.80;97.00
18043;DHT22;9146;48.074;11.968;2023-06-10T13:21:23;26.00;96.40
18043;DHT22;9146;48.074;11.968;2023-06-10T13:23:51;26.10;95.40
18043;DHT22;9146;48.074;11.968;2023-06-10T13:26:18;26.10;95.50
18043;DHT22;9146;48.074;11.968;2023-06-10T13:28:45;26.20;95.30
18043;DHT22;9146;48.074;11.968;2023-06-10T13:31:12;26.10;96.10
18043;DHT22;9146;48.074;11.968;2023-06-10T13:33:39;26.20;95.50
18043;DHT22;9146;48.074;11.968;2023-06-10T13:36:09;26.30;95.70
18043;DHT22;9146;48.074;11.968;2023-06-10T13:38:36;26.20;95.20
18043;DHT22;9146;48.074;11.968;2023-06-10T13:41:04;26.30;95.10
18043;DHT22;9146;48.074;11.968;2023-06-10T13:43:31;26.40;95.00
18043;DHT22;9146;48.074;11.968;2023-06-10T13:45:58;26.50;94.90
18043;DHT22;9146;48.074;11.968;2023-06-10T13:48:25;26.40;94.00
18043;DHT22;9146;48.074;11.968;2023-06-10T13:50:52;26.40;93.40
18043;DHT22;9146;48.074;11.968;2023-06-10T13:53:19;26.30;93.30
18043;DHT22;9146;48.074;11.968;2023-06-10T13:55:46;26.30;93.80
18043;DHT22;9146;48.074;11.968;2023-06-10T13:58:14;26.10;94.30
18043;DHT22;9146;48.074;11.968;2023-06-10T14:00:41;26.00;93.60
18043;DHT22;9146;48.074;11.968;2023-06-10T14:03:08;26.00;93.30
18043;DHT22;9146;48.074;11.968;2023-06-10T14:05:35;25.90;93.10
18043;DHT22;9146;48.074;11.968;2023-06-10T14:08:01;25.90;93.30
18043;DHT22;9146;48.074;11.968;2023-06-10T14:10:28;25.90;93.20
18043;DHT22;9146;48.074;11.968;2023-06-10T14:12:55;25.70;93.00
18043;DHT22;9146;48.074;11.968;2023-06-10T14:15:23;25.70;92.70
18043;DHT22;9146;48.074;11.968;2023-06-10T14:17:50;25.70;93.10
18043;DHT22;9146;48.074;11.968;2023-06-10T14:20:17;25.90;92.70
18043;DHT22;9146;48.074;11.968;2023-06-10T14:22:44;25.90;91.60
18043;DHT22;9146;48.074;11.968;2023-06-10T14:25:11;26.00;91.80
18043;DHT22;9146;48.074;11.968;2023-06-10T14:27:38;26.10;91.70
18043;DHT22;9146;48.074;11.968;2023-06-10T14:30:06;26.40;91.50
18043;DHT22;9146;48.074;11.968;2023-06-10T14:32:35;26.80;91.00
18043;DHT22;9146;48.074;11.968;2023-06-10T14:35:02;27.10;90.20
18043;DHT22;9146;48.074;11.968;2023-06-10T14:37:29;27.50;88.40
18043;DHT22;9146;48.074;11.968;2023-06-10T14:39:56;27.70;87.30
18043;DHT22;9146;48.074;11.968;2023-06-10T14:42:23;27.70;86.60
18043;DHT22;9146;48.074;11.968;2023-06-10T14:44:50;27.80;86.00
18043;DHT22;9146;48.074;11.968;2023-06-10T14:47:17;27.60;86.00
18043;DHT22;9146;48.074;11.968;2023-06-10T14:49:45;27.50;86.30
18043;DHT22;9146;48.074;11.968;2023-06-10T14:52:12;27.50;87.10
18043;DHT22;9146;48.074;11.968;2023-06-10T14:54:39;27.40;87.10
18043;DHT22;9146;48.074;11.968;2023-06-10T14:57:06;27.40;86.80
18043;DHT22;9146;48.074;11.968;2023-06-10T14:59:33;27.00;87.70
18043;DHT22;9146;48.074;11.968;2023-06-10T15:02:01;26.90;89.10
18043;DHT22;9146;48.074;11.968;2023-06-10T15:04:28;26.70;89.20
18043;DHT22;9146;48.074;11.968;2023-06-10T15:06:56;26.60;90.30
18043;DHT22;9146;48.074;11.968;2023-06-10T15:09:23;26.40;90.60
18043;DHT22;9146;48.074;11.968;2023-06-10T15:11:50;26.50;90.70
18043;DHT22;9146;48.074;11.968;2023-06-10T15:14:17;26.50;90.30
18043;DHT22;9146;48.074;11.968;2023-06-10T15:16:43;26.50;88.60
18043;DHT22;9146;48.074;11.968;2023-06-10T15:19:10;26.40;90.00
18043;DHT22;9146;48.074;11.968;2023-06-10T15:21:38;26.50;91.30
18043;DHT22;9146;48.074;11.968;2023-06-10T15:24:07;26.50;92.00
18043;DHT22;9146;48.074;11.968;2023-06-10T15:26:34;26.50;92.60
18043;DHT22;9146;48.074;11.968;2023-06-10T15:29:01;26.50;92.90
18043;DHT22;9146;48.074;11.968;2023-06-10T15:31:30;26.30;92.80
18043;DHT22;9146;48.074;11.968;2023-06-10T15:33:57;26.10;92.90
18043;DHT22;9146;48.074;11.968;2023-06-10T15:36:24;25.80;93.20